Time;durP1;ratioP1;P1;durP2;ratioP2;P2;SDS_P1;SDS_P2;PMS_P1;PMS_P2;Temp;Humidity;BMP_temperature;BMP_pressure;BME280_temperature;BME280_humidity;BME280_pressure;Samples;Min_cycle;Max_cycle;Signal;HPM_P1;HPM_P2
2022/12/10 00:00:00;;;;;;;61.80;34.83;;;;;;;;;;5060216;28;20502;-85
2022/12/10 00:02:26;;;;;;;63.78;34.80;;;;;;;;;;5064420;28;20435;-85
2022/12/10 00:04:52;;;;;;;67.15;35.03;;;;;;;;;;5069937;28;20923;-85
2022/12/10 00:07:19;;;;;;;64.30;33.37;;;;;;;;;;5062433;28;20429;-85
2022/12/10 00:09:45;;;;;;;70.13;36.05;;;;;;;;;;5062456;28;20411;-85
2022/12/10 00:12:13;;;;;;;65.93;33.83;;;;;;;;;;5065017;28;20421;-85
2022/12/10 00:14:39;;;;;;;62.17;33.25;;;;;;;;;;5066490;28;20419;-85
2022/12/10 00:17:06;;;;;;;65.60;34.78;;;;;;;;;;5067814;28;20424;-85
2022/12/10 00:19:32;;;;;;;66.28;34.30;;;;;;;;;;5063687;28;20420;-85
2022/12/10 00:21:59;;;;;;;66.78;35.13;;;;;;;;;;5066085;28;20424;-85
2022/12/10 00:24:25;;;;;;;62.50;34.00;;;;;;;;;;5064656;28;20413;-85
2022/12/10 00:26:51;;;;;;;63.15;33.95;;;;;;;;;;5066828;28;20433;-85
2022/12/10 00:29:19;;;;;;;66.50;34.55;;;;;;;;;;5065380;28;21077;-85
2022/12/10 00:31:46;;;;;;;62.15;34.10;;;;;;;;;;5067394;28;20432;-85
2022/12/10 00:34:12;;;;;;;64.05;34.40;;;;;;;;;;5057586;28;20421;-85
2022/12/10 00:36:41;;;;;;;61.27;33.73;;;;;;;;;;5062301;28;20425;-85
2022/12/10 00:39:08;;;;;;;61.47;32.60;;;;;;;;;;5061733;28;20424;-85
2022/12/10 00:41:35;;;;;;;58.45;32.47;;;;;;;;;;5057855;28;20777;-85
2022/12/10 00:44:01;;;;;;;62.33;33.47;;;;;;;;;;5058330;28;20421;-85
2022/12/10 00:46:29;;;;;;;59.00;32.13;;;;;;;;;;5063838;28;20423;-85
2022/12/10 00:48:56;;;;;;;56.58;32.28;;;;;;;;;;5055362;28;20421;-85
2022/12/10 00:51:23;;;;;;;61.83;32.97;;;;;;;;;;5055235;28;20932;-85
2022/12/10 00:53:50;;;;;;;57.90;32.33;;;;;;;;;;5058551;28;20422;-85
2022/12/10 00:56:18;;;;;;;62.97;33.03;;;;;;;;;;5062484;28;20922;-85
2022/12/10 00:58:44;;;;;;;57.22;32.78;;;;;;;;;;5063147;28;20423;-85
2022/12/10 01:01:12;;;;;;;63.55;33.28;;;;;;;;;;5065278;28;20424;-85
2022/12/10 01:03:40;;;;;;;64.05;33.50;;;;;;;;;;5063181;28;20416;-85
2022/12/10 01:06:11;;;;;;;63.58;34.08;;;;;;;;;;5061962;28;20429;-85
2022/12/10 01:08:38;;;;;;;64.28;34.00;;;;;;;;;;5067439;28;20445;-85
2022/12/10 01:11:04;;;;;;;63.63;33.65;;;;;;;;;;5066177;28;20783;-85
2022/12/10 01:13:31;;;;;;;59.53;33.33;;;;;;;;;;5061928;28;20412;-85
2022/12/10 01:15:57;;;;;;;66.57;35.65;;;;;;;;;;5065623;28;20415;-85
2022/12/10 01:18:24;;;;;;;65.43;33.85;;;;;;;;;;5063661;28;20419;-85
2022/12/10 01:20:52;;;;;;;64.83;36.00;;;;;;;;;;5061959;28;20884;-85
2022/12/10 01:23:18;;;;;;;65.90;35.10;;;;;;;;;;5066401;28;20938;-85
2022/12/10 01:25:44;;;;;;;69.20;36.10;;;;;;;;;;5068457;28;20419;-85
2022/12/10 01:28:11;;;;;;;67.00;35.45;;;;;;;;;;5063746;28;20414;-85
2022/12/10 01:30:37;;;;;;;65.85;35.30;;;;;;;;;;5065529;28;20410;-85
2022/12/10 01:33:04;;;;;;;65.25;35.95;;;;;;;;;;5061875;28;20411;-85
2022/12/10 01:35:30;;;;;;;66.47;34.72;;;;;;;;;;5061871;28;20433;-85
2022/12/10 01:37:58;;;;;;;71.70;37.10;;;;;;;;;;5064046;28;20408;-85
2022/12/10 01:40:25;;;;;;;71.00;36.67;;;;;;;;;;5061637;28;20437;-85
2022/12/10 01:42:51;;;;;;;63.83;35.10;;;;;;;;;;5065189;28;20423;-85
2022/12/10 01:45:18;;;;;;;68.00;35.50;;;;;;;;;;5061568;28;20434;-85
2022/12/10 01:47:45;;;;;;;67.38;35.85;;;;;;;;;;5058678;28;20432;-85
2022/12/10 01:50:11;;;;;;;66.90;34.97;;;;;;;;;;5063577;28;20428;-85
2022/12/10 01:52:38;;;;;;;72.97;37.80;;;;;;;;;;5067087;28;20550;-85
2022/12/10 01:55:29;;;;;;;72.80;36.85;;;;;;;;;;5065861;28;20429;-85
2022/12/10 01:57:55;;;;;;;68.88;37.45;;;;;;;;;;5065425;28;20413;-85
2022/12/10 02:00:22;;;;;;;73.97;38.40;;;;;;;;;;5061892;28;20421;-85
2022/12/10 02:02:52;;;;;;;70.80;37.00;;;;;;;;;;5064974;28;20423;-85
2022/12/10 02:05:24;;;;;;;70.00;37.67;;;;;;;;;;5064006;28;20438;-85
2022/12/10 02:07:54;;;;;;;69.35;37.00;;;;;;;;;;5062504;28;20435;-85
2022/12/10 02:10:28;;;;;;;72.30;37.25;;;;;;;;;;5062021;28;20429;-85
2022/12/10 02:12:57;;;;;;;67.43;36.22;;;;;;;;;;5072131;28;20425;-85
2022/12/10 02:15:25;;;;;;;64.43;35.53;;;;;;;;;;5066164;28;20765;-85
2022/12/10 02:17:53;;;;;;;73.93;37.35;;;;;;;;;;5066896;28;20436;-85
2022/12/10 02:20:21;;;;;;;72.95;36.72;;;;;;;;;;5066009;28;20427;-85
2022/12/10 02:22:49;;;;;;;71.85;37.50;;;;;;;;;;5064550;28;20448;-85
2022/12/10 02:25:18;;;;;;;72.53;36.80;;;;;;;;;;5062200;28;20416;-85
2022/12/10 02:27:50;;;;;;;69.22;35.97;;;;;;;;;;5064806;28;20438;-85
2022/12/10 02:30:18;;;;;;;69.05;36.47;;;;;;;;;;5062798;28;20930;-85
2022/12/10 02:32:45;;;;;;;74.82;38.13;;;;;;;;;;5063738;28;20416;-85
2022/12/10 02:35:15;;;;;;;70.95;37.10;;;;;;;;;;5065101;28;20538;-85
2022/12/10 02:37:43;;;;;;;74.72;37.90;;;;;;;;;;5062808;28;20437;-85
2022/12/10 02:40:14;;;;;;;78.72;39.28;;;;;;;;;;5068315;28;20425;-85
2022/12/10 02:42:42;;;;;;;74.53;37.60;;;;;;;;;;5065452;28;20424;-85
2022/12/10 02:45:09;;;;;;;72.18;36.45;;;;;;;;;;5063958;28;20429;-85
2022/12/10 02:47:38;;;;;;;68.20;36.20;;;;;;;;;;5064530;28;20933;-85
2022/12/10 02:50:05;;;;;;;68.07;37.50;;;;;;;;;;5065549;28;20495;-85
2022/12/10 02:52:32;;;;;;;71.82;38.05;;;;;;;;;;5065659;28;20793;-85
2022/12/10 02:54:58;;;;;;;71.78;37.88;;;;;;;;;;5064865;28;20417;-85
2022/12/10 02:57:29;;;;;;;70.88;37.78;;;;;;;;;;5066113;28;20425;-85
2022/12/10 03:00:01;;;;;;;75.88;38.28;;;;;;;;;;5059948;28;20419;-85
2022/12/10 03:02:30;;;;;;;74.95;37.90;;;;;;;;;;5065161;28;20428;-85
2022/12/10 03:05:02;;;;;;;71.20;37.10;;;;;;;;;;5059064;28;20432;-85
2022/12/10 03:07:33;;;;;;;69.03;35.67;;;;;;;;;;5064001;28;20433;-85
2022/12/10 03:10:02;;;;;;;71.93;36.78;;;;;;;;;;5063918;28;20423;-85
2022/12/10 03:12:30;;;;;;;73.28;37.80;;;;;;;;;;5062390;28;21106;-85
2022/12/10 03:14:58;;;;;;;73.93;37.92;;;;;;;;;;5062524;28;20957;-85
2022/12/10 03:17:25;;;;;;;71.63;37.08;;;;;;;;;;5061547;28;20448;-85
2022/12/10 03:19:52;;;;;;;71.35;37.13;;;;;;;;;;5061942;28;20424;-85
2022/12/10 03:22:20;;;;;;;72.38;37.33;;;;;;;;;;5067637;28;20427;-85
2022/12/10 03:24:48;;;;;;;69.03;36.60;;;;;;;;;;5064510;28;20516;-85
2022/12/10 03:27:16;;;;;;;71.47;37.83;;;;;;;;;;5060814;28;20465;-85
2022/12/10 03:29:45;;;;;;;70.80;36.63;;;;;;;;;;5062068;28;20421;-85
2022/12/10 03:32:11;;;;;;;68.93;37.63;;;;;;;;;;5060348;28;20427;-85
2022/12/10 03:34:38;;;;;;;68.97;36.20;;;;;;;;;;5061943;28;20836;-85
2022/12/10 03:37:05;;;;;;;72.95;36.65;;;;;;;;;;5060070;28;20438;-85
2022/12/10 03:39:33;;;;;;;71.70;36.85;;;;;;;;;;5061642;28;20425;-85
2022/12/10 03:42:00;;;;;;;70.05;35.30;;;;;;;;;;5065302;28;20436;-85
2022/12/10 03:44:30;;;;;;;68.57;36.00;;;;;;;;;;5060489;28;20424;-85
2022/12/10 03:46:56;;;;;;;65.43;35.85;;;;;;;;;;5062414;28;20425;-85
2022/12/10 03:49:22;;;;;;;71.87;36.47;;;;;;;;;;5063523;28;20421;-85
2022/12/10 03:51:49;;;;;;;68.72;35.50;;;;;;;;;;5060991;28;20791;-85
2022/12/10 03:54:15;;;;;;;69.35;37.28;;;;;;;;;;5062134;28;20930;-85
2022/12/10 03:56:43;;;;;;;64.18;34.38;;;;;;;;;;5064054;28;20427;-85
2022/12/10 03:59:09;;;;;;;61.35;35.70;;;;;;;;;;5065396;28;20432;-85
2022/12/10 04:01:35;;;;;;;64.93;34.57;;;;;;;;;;5054573;28;21419;-85
2022/12/10 04:04:03;;;;;;;69.75;35.75;;;;;;;;;;5063435;28;20425;-85
2022/12/10 04:06:30;;;;;;;66.32;35.10;;;;;;;;;;5062798;28;20424;-85
2022/12/10 04:08:56;;;;;;;65.50;34.42;;;;;;;;;;5058707;28;20424;-85
2022/12/10 04:11:23;;;;;;;64.13;35.20;;;;;;;;;;5062994;28;20404;-85
2022/12/10 04:16:35;;;;;;;67.28;36.85;;;;;;;;;;5059458;28;20935;-85
2022/12/10 04:19:04;;;;;;;65.75;35.20;;;;;;;;;;5056394;28;20418;-85
2022/12/10 04:27:01;;;;;;;63.95;33.75;;;;;;;;;;5063191;28;20387;-85
2022/12/10 04:29:30;;;;;;;64.38;35.03;;;;;;;;;;5065154;28;20673;-85
2022/12/10 04:31:57;;;;;;;66.63;35.58;;;;;;;;;;5068831;28;20415;-85
2022/12/10 04:34:24;;;;;;;62.10;33.58;;;;;;;;;;5066434;28;20419;-85
2022/12/10 04:36:50;;;;;;;58.63;33.87;;;;;;;;;;5065019;28;20510;-85
2022/12/10 04:39:17;;;;;;;63.63;34.78;;;;;;;;;;5065479;28;20430;-85
2022/12/10 04:41:44;;;;;;;61.85;35.25;;;;;;;;;;5059411;28;20815;-85
2022/12/10 04:44:11;;;;;;;57.45;32.92;;;;;;;;;;5058859;28;20425;-84
2022/12/10 04:46:39;;;;;;;58.97;33.50;;;;;;;;;;5061173;28;20433;-85
2022/12/10 04:49:06;;;;;;;58.80;32.67;;;;;;;;;;5058607;28;20451;-85
2022/12/10 04:51:32;;;;;;;57.40;32.92;;;;;;;;;;5067179;28;20427;-85
2022/12/10 04:53:59;;;;;;;59.28;32.90;;;;;;;;;;5059057;28;21717;-85
2022/12/10 04:56:25;;;;;;;56.73;31.33;;;;;;;;;;5064505;28;20476;-85
2022/12/10 04:58:52;;;;;;;56.00;32.50;;;;;;;;;;5056471;28;20420;-85
2022/12/10 05:01:19;;;;;;;50.90;30.15;;;;;;;;;;5062127;28;20436;-85
2022/12/10 05:03:47;;;;;;;50.83;29.40;;;;;;;;;;5055725;28;20415;-85
2022/12/10 05:06:14;;;;;;;44.28;28.17;;;;;;;;;;5064649;28;20417;-85
2022/12/10 05:08:41;;;;;;;48.40;28.38;;;;;;;;;;5055728;28;20425;-85
2022/12/10 05:11:10;;;;;;;48.55;29.50;;;;;;;;;;5062954;28;20419;-85
2022/12/10 05:13:37;;;;;;;53.65;30.95;;;;;;;;;;5061723;28;20418;-85
2022/12/10 05:16:04;;;;;;;47.85;29.30;;;;;;;;;;5063427;28;20450;-85
2022/12/10 05:18:31;;;;;;;49.47;29.80;;;;;;;;;;5064411;28;20429;-85
2022/12/10 05:21:00;;;;;;;45.80;27.13;;;;;;;;;;5066095;28;20432;-85
2022/12/10 05:23:28;;;;;;;44.47;27.73;;;;;;;;;;5060055;28;20421;-85
2022/12/10 05:25:58;;;;;;;47.50;28.70;;;;;;;;;;5066190;28;20429;-85
2022/12/10 05:28:25;;;;;;;48.85;28.45;;;;;;;;;;5067101;28;20434;-85
2022/12/10 05:30:52;;;;;;;48.00;29.13;;;;;;;;;;5063269;28;20431;-85
2022/12/10 05:33:18;;;;;;;42.67;26.90;;;;;;;;;;5063302;28;20452;-85
2022/12/10 05:35:44;;;;;;;50.13;28.30;;;;;;;;;;5065471;28;20436;-85
2022/12/10 05:38:12;;;;;;;45.17;28.30;;;;;;;;;;5059349;28;20429;-85
2022/12/10 05:40:39;;;;;;;48.58;28.70;;;;;;;;;;5063337;28;20423;-85
2022/12/10 05:43:05;;;;;;;46.53;27.58;;;;;;;;;;5063203;28;20410;-85
2022/12/10 05:45:32;;;;;;;43.85;27.00;;;;;;;;;;5068276;28;20423;-85
2022/12/10 05:47:58;;;;;;;47.50;28.38;;;;;;;;;;5060902;28;20393;-85
2022/12/10 05:50:25;;;;;;;43.22;26.35;;;;;;;;;;5061224;28;20439;-85
2022/12/10 05:52:52;;;;;;;47.25;27.83;;;;;;;;;;5062853;28;20430;-85
2022/12/10 05:55:19;;;;;;;43.63;27.27;;;;;;;;;;5067034;28;20424;-85
2022/12/10 05:57:46;;;;;;;44.40;27.05;;;;;;;;;;5066664;28;20432;-85
2022/12/10 06:00:13;;;;;;;45.80;28.90;;;;;;;;;;5065804;28;20424;-85
2022/12/10 06:02:39;;;;;;;40.17;24.70;;;;;;;;;;5065267;28;20902;-85
2022/12/10 06:05:06;;;;;;;39.38;25.75;;;;;;;;;;5067744;28;20406;-85
2022/12/10 06:07:32;;;;;;;44.73;27.63;;;;;;;;;;5060791;28;20438;-85
2022/12/10 06:09:59;;;;;;;45.58;27.48;;;;;;;;;;5067213;28;20494;-85
2022/12/10 06:12:27;;;;;;;43.63;26.40;;;;;;;;;;5061945;28;20429;-85
2022/12/10 06:14:53;;;;;;;41.70;27.52;;;;;;;;;;5066993;28;20430;-84
2022/12/10 06:17:19;;;;;;;42.97;26.50;;;;;;;;;;5059312;28;20421;-85
2022/12/10 06:19:46;;;;;;;44.13;27.95;;;;;;;;;;5064292;28;20435;-85
2022/12/10 06:22:13;;;;;;;46.15;27.58;;;;;;;;;;5061293;28;20425;-85
2022/12/10 06:24:39;;;;;;;50.33;29.50;;;;;;;;;;5063686;28;20426;-85
2022/12/10 06:27:05;;;;;;;42.22;26.50;;;;;;;;;;5064953;28;20425;-85
2022/12/10 06:29:34;;;;;;;46.97;27.52;;;;;;;;;;5060769;28;20425;-85
2022/12/10 06:32:03;;;;;;;46.00;28.75;;;;;;;;;;5069275;28;20766;-85
2022/12/10 06:34:29;;;;;;;40.58;27.10;;;;;;;;;;5060243;28;20425;-85
2022/12/10 06:36:56;;;;;;;47.93;27.43;;;;;;;;;;5061130;28;20475;-85
2022/12/10 06:39:23;;;;;;;40.87;26.30;;;;;;;;;;5059132;28;20433;-85
2022/12/10 06:41:49;;;;;;;43.90;28.02;;;;;;;;;;5067078;28;20427;-85
2022/12/10 06:44:16;;;;;;;46.95;29.48;;;;;;;;;;5060249;28;20804;-85
2022/12/10 06:46:44;;;;;;;43.97;27.50;;;;;;;;;;5060400;28;20438;-84
2022/12/10 06:49:10;;;;;;;41.13;26.53;;;;;;;;;;5059693;28;20429;-84
2022/12/10 06:51:38;;;;;;;47.53;28.73;;;;;;;;;;5066016;28;20459;-84
2022/12/10 06:54:05;;;;;;;41.50;26.90;;;;;;;;;;5060981;28;20425;-84
2022/12/10 06:56:31;;;;;;;42.25;26.60;;;;;;;;;;5068157;28;20839;-85
2022/12/10 06:58:59;;;;;;;45.33;28.15;;;;;;;;;;5064384;28;20436;-85
2022/12/10 07:01:26;;;;;;;43.67;28.07;;;;;;;;;;5064830;28;20423;-85
2022/12/10 07:03:55;;;;;;;42.73;27.53;;;;;;;;;;5060239;28;21015;-85
2022/12/10 07:06:22;;;;;;;44.80;29.17;;;;;;;;;;5063512;28;20437;-85
2022/12/10 07:08:48;;;;;;;43.50;28.30;;;;;;;;;;5065023;28;20510;-85
2022/12/10 07:11:16;;;;;;;45.65;28.40;;;;;;;;;;5062735;28;20436;-85
2022/12/10 07:13:42;;;;;;;39.85;27.80;;;;;;;;;;5060740;28;20421;-84
2022/12/10 07:16:13;;;;;;;43.10;26.90;;;;;;;;;;5064869;28;20438;-84
2022/12/10 07:18:39;;;;;;;42.45;27.95;;;;;;;;;;5056347;28;20421;-85
2022/12/10 07:21:15;;;;;;;42.78;27.98;;;;;;;;;;5061149;28;20805;-85
2022/12/10 07:23:42;;;;;;;45.60;29.80;;;;;;;;;;5061894;28;20421;-85
2022/12/10 07:26:08;;;;;;;43.72;28.10;;;;;;;;;;5063813;28;20635;-85
2022/12/10 07:28:34;;;;;;;40.92;26.98;;;;;;;;;;5063099;28;20436;-85
2022/12/10 07:31:01;;;;;;;39.97;27.37;;;;;;;;;;5068006;28;20458;-84
2022/12/10 07:33:28;;;;;;;45.08;29.00;;;;;;;;;;5059987;28;20442;-85
2022/12/10 07:35:54;;;;;;;39.80;26.92;;;;;;;;;;5066185;28;20423;-85
2022/12/10 07:38:22;;;;;;;44.33;28.30;;;;;;;;;;5065027;28;20408;-85
2022/12/10 07:40:48;;;;;;;45.53;28.90;;;;;;;;;;5066855;28;20422;-85
2022/12/10 07:43:15;;;;;;;43.25;28.20;;;;;;;;;;5061383;28;20483;-85
2022/12/10 07:45:41;;;;;;;44.75;28.85;;;;;;;;;;5065341;28;20430;-85
2022/12/10 07:48:08;;;;;;;42.35;29.02;;;;;;;;;;5063871;28;20407;-85
2022/12/10 07:50:34;;;;;;;44.20;28.23;;;;;;;;;;5066527;28;20433;-85
2022/12/10 07:53:01;;;;;;;42.88;28.67;;;;;;;;;;5062314;28;20790;-84
2022/12/10 07:55:28;;;;;;;39.00;26.88;;;;;;;;;;5060029;28;20423;-84
2022/12/10 07:57:55;;;;;;;43.80;28.20;;;;;;;;;;5061077;28;20510;-85
2022/12/10 08:00:22;;;;;;;47.00;29.90;;;;;;;;;;5059119;28;20425;-85
2022/12/10 08:02:48;;;;;;;43.22;28.42;;;;;;;;;;5063493;28;20436;-85
2022/12/10 08:05:14;;;;;;;43.17;27.80;;;;;;;;;;5067924;28;20431;-82
2022/12/10 08:07:41;;;;;;;44.08;28.65;;;;;;;;;;5066097;28;20782;-83
2022/12/10 08:10:08;;;;;;;46.73;29.80;;;;;;;;;;5067105;28;20852;-83
2022/12/10 08:12:35;;;;;;;41.53;28.55;;;;;;;;;;5069330;28;20429;-83
2022/12/10 08:15:03;;;;;;;41.67;28.70;;;;;;;;;;5065274;28;20436;-83
2022/12/10 08:17:30;;;;;;;42.70;26.90;;;;;;;;;;5069494;28;20510;-83
2022/12/10 08:19:56;;;;;;;46.53;29.02;;;;;;;;;;5066302;28;20421;-84
2022/12/10 08:22:22;;;;;;;42.00;27.80;;;;;;;;;;5063222;28;20520;-83
2022/12/10 08:24:49;;;;;;;43.00;28.52;;;;;;;;;;5064358;28;20759;-83
2022/12/10 08:27:15;;;;;;;41.15;27.33;;;;;;;;;;5070699;28;20942;-83
2022/12/10 08:29:43;;;;;;;41.88;27.02;;;;;;;;;;5070496;28;20425;-83
2022/12/10 08:32:09;;;;;;;42.50;26.50;;;;;;;;;;5057256;28;20917;-84
2022/12/10 08:34:35;;;;;;;37.10;25.50;;;;;;;;;;5069348;28;20927;-83
2022/12/10 08:37:02;;;;;;;40.88;27.13;;;;;;;;;;5071528;28;20419;-83
2022/12/10 08:39:28;;;;;;;38.70;25.95;;;;;;;;;;5062808;28;20506;-83
2022/12/10 08:41:54;;;;;;;39.40;26.10;;;;;;;;;;5076330;28;21294;-83
2022/12/10 08:44:21;;;;;;;41.63;26.98;;;;;;;;;;5067694;28;20432;-83
2022/12/10 08:46:48;;;;;;;43.22;27.55;;;;;;;;;;5066169;28;20429;-84
2022/12/10 08:49:15;;;;;;;43.00;26.98;;;;;;;;;;5066969;28;20517;-83
2022/12/10 08:51:42;;;;;;;43.15;27.02;;;;;;;;;;5069623;28;20422;-83
2022/12/10 08:54:08;;;;;;;40.95;26.58;;;;;;;;;;5067377;28;20427;-83
2022/12/10 08:56:34;;;;;;;40.05;26.35;;;;;;;;;;5070343;28;20424;-83
2022/12/10 08:59:01;;;;;;;38.60;25.30;;;;;;;;;;5070323;28;20974;-83
2022/12/10 09:01:27;;;;;;;35.10;24.70;;;;;;;;;;5063386;28;20455;-83
2022/12/10 09:03:55;;;;;;;32.77;21.53;;;;;;;;;;5069114;28;20415;-84
2022/12/10 09:06:23;;;;;;;36.67;24.02;;;;;;;;;;5071060;28;20430;-83
2022/12/10 09:08:50;;;;;;;32.80;21.95;;;;;;;;;;5060212;28;20428;-83
2022/12/10 09:11:17;;;;;;;34.08;23.30;;;;;;;;;;5068934;28;20431;-83
2022/12/10 09:13:44;;;;;;;32.97;23.00;;;;;;;;;;5070586;28;20417;-83
2022/12/10 09:16:11;;;;;;;38.72;23.85;;;;;;;;;;5066132;28;20424;-83
2022/12/10 09:18:37;;;;;;;34.03;24.25;;;;;;;;;;5068732;28;20789;-83
2022/12/10 09:21:07;;;;;;;37.78;25.60;;;;;;;;;;5068281;28;20409;-83
2022/12/10 09:23:34;;;;;;;34.47;23.52;;;;;;;;;;5066060;28;20432;-83
2022/12/10 09:26:00;;;;;;;36.22;24.40;;;;;;;;;;5064794;28;20434;-81
2022/12/10 09:28:26;;;;;;;37.72;24.67;;;;;;;;;;5069229;28;20423;-83
2022/12/10 09:30:57;;;;;;;37.33;24.08;;;;;;;;;;5066376;28;20479;-83
2022/12/10 09:33:23;;;;;;;36.60;22.95;;;;;;;;;;5064516;28;20427;-83
2022/12/10 09:35:49;;;;;;;36.42;22.70;;;;;;;;;;5065729;28;20429;-83
2022/12/10 09:38:17;;;;;;;33.78;22.90;;;;;;;;;;5065233;28;20405;-83
2022/12/10 09:40:46;;;;;;;33.45;22.30;;;;;;;;;;5073412;28;20437;-83
2022/12/10 09:43:17;;;;;;;34.72;23.48;;;;;;;;;;5071471;28;20408;-83
2022/12/10 09:45:47;;;;;;;31.98;21.02;;;;;;;;;;5068928;28;20616;-83
2022/12/10 09:48:20;;;;;;;32.95;22.33;;;;;;;;;;5072602;28;20415;-83
2022/12/10 09:50:49;;;;;;;29.63;20.27;;;;;;;;;;5066664;28;20435;-83
2022/12/10 09:53:18;;;;;;;31.60;21.20;;;;;;;;;;5065930;28;20420;-83
2022/12/10 09:55:46;;;;;;;32.30;21.52;;;;;;;;;;5063701;28;20431;-83
2022/12/10 09:58:16;;;;;;;32.22;20.23;;;;;;;;;;5061597;28;20429;-83
2022/12/10 10:00:45;;;;;;;29.73;18.90;;;;;;;;;;5070157;28;20428;-83
2022/12/10 10:03:13;;;;;;;26.13;16.60;;;;;;;;;;5071298;28;20411;-83
2022/12/10 10:05:41;;;;;;;25.35;16.65;;;;;;;;;;5074054;28;20417;-83
2022/12/10 10:08:12;;;;;;;24.45;16.10;;;;;;;;;;5069606;28;20434;-83
2022/12/10 10:10:41;;;;;;;28.03;17.80;;;;;;;;;;5065924;28;20411;-83
2022/12/10 10:13:13;;;;;;;28.70;19.00;;;;;;;;;;5069287;28;20924;-83
2022/12/10 10:15:41;;;;;;;21.95;15.35;;;;;;;;;;5064161;28;20833;-83
2022/12/10 10:18:12;;;;;;;23.00;16.33;;;;;;;;;;5075219;28;20778;-83
2022/12/10 10:20:38;;;;;;;25.55;16.40;;;;;;;;;;5067280;28;20429;-83
2022/12/10 10:23:04;;;;;;;24.80;16.70;;;;;;;;;;5068226;28;20432;-83
2022/12/10 10:25:31;;;;;;;22.98;15.13;;;;;;;;;;5070353;28;20425;-83
2022/12/10 10:27:59;;;;;;;21.13;15.30;;;;;;;;;;5068018;28;20415;-83
2022/12/10 10:30:25;;;;;;;24.27;16.40;;;;;;;;;;5069772;28;20437;-83
2022/12/10 10:32:52;;;;;;;24.83;16.10;;;;;;;;;;5069940;28;20417;-83
2022/12/10 10:35:23;;;;;;;26.95;17.83;;;;;;;;;;5068665;28;20427;-83
2022/12/10 10:37:50;;;;;;;17.83;13.93;;;;;;;;;;5069576;28;20438;-83
2022/12/10 10:40:22;;;;;;;21.40;13.73;;;;;;;;;;5068042;28;20417;-84
2022/12/10 10:42:49;;;;;;;20.88;14.70;;;;;;;;;;5069457;28;20425;-83
2022/12/10 10:45:30;;;;;;;26.92;17.88;;;;;;;;;;5070904;28;20434;-83
2022/12/10 10:48:06;;;;;;;23.98;16.80;;;;;;;;;;5071059;28;20419;-84
2022/12/10 10:50:36;;;;;;;21.95;16.67;;;;;;;;;;5068316;28;20445;-83
2022/12/10 10:53:03;;;;;;;23.75;16.55;;;;;;;;;;5068303;28;20411;-84
2022/12/10 10:55:35;;;;;;;21.75;15.05;;;;;;;;;;5069572;28;20437;-83
2022/12/10 10:58:01;;;;;;;20.52;13.73;;;;;;;;;;5072043;28;20487;-83
2022/12/10 11:00:28;;;;;;;22.55;15.20;;;;;;;;;;5069197;28;20438;-84
2022/12/10 11:02:54;;;;;;;28.30;17.80;;;;;;;;;;5071304;28;20425;-83
2022/12/10 11:05:23;;;;;;;21.65;14.88;;;;;;;;;;5060732;28;20968;-83
2022/12/10 11:07:57;;;;;;;22.70;16.10;;;;;;;;;;5069669;28;20433;-83
2022/12/10 11:10:24;;;;;;;22.50;15.32;;;;;;;;;;5074678;28;20434;-83
2022/12/10 11:12:54;;;;;;;24.50;16.90;;;;;;;;;;5069508;28;20521;-84
2022/12/10 11:15:32;;;;;;;22.65;15.35;;;;;;;;;;5074371;28;20453;-83
2022/12/10 11:17:58;;;;;;;25.13;16.30;;;;;;;;;;5066907;28;20901;-83
2022/12/10 11:20:27;;;;;;;26.63;17.17;;;;;;;;;;5071257;28;20432;-83
2022/12/10 11:22:55;;;;;;;24.65;17.15;;;;;;;;;;5072701;28;20446;-83
2022/12/10 11:25:28;;;;;;;26.07;17.37;;;;;;;;;;5072783;28;20839;-83
2022/12/10 11:27:57;;;;;;;29.77;19.27;;;;;;;;;;5067264;28;20423;-84
2022/12/10 11:30:24;;;;;;;29.30;20.13;;;;;;;;;;5072806;28;20433;-83
2022/12/10 11:32:58;;;;;;;26.38;17.92;;;;;;;;;;5070811;28;20420;-84
2022/12/10 11:35:32;;;;;;;25.53;18.20;;;;;;;;;;5065634;28;20433;-83
2022/12/10 11:38:00;;;;;;;26.98;18.45;;;;;;;;;;5069743;28;20402;-83
2022/12/10 11:40:39;;;;;;;28.23;19.15;;;;;;;;;;5066383;28;20429;-83
2022/12/10 11:43:19;;;;;;;30.00;18.20;;;;;;;;;;5069233;28;20416;-84
2022/12/10 11:45:51;;;;;;;28.05;18.55;;;;;;;;;;5068786;28;20424;-83
2022/12/10 11:48:23;;;;;;;27.02;17.27;;;;;;;;;;5067585;28;20431;-83
2022/12/10 11:50:53;;;;;;;29.23;20.10;;;;;;;;;;5072926;28;20429;-84
2022/12/10 11:53:27;;;;;;;29.98;20.73;;;;;;;;;;5069550;28;20428;-84
2022/12/10 11:56:00;;;;;;;26.02;18.63;;;;;;;;;;5063849;28;20431;-83
2022/12/10 11:58:36;;;;;;;29.08;18.92;;;;;;;;;;5072152;28;20437;-83
2022/12/10 12:01:07;;;;;;;29.55;20.58;;;;;;;;;;5065562;28;20432;-84
2022/12/10 12:03:40;;;;;;;28.85;19.15;;;;;;;;;;5065219;28;20417;-83
2022/12/10 12:06:17;;;;;;;31.50;19.98;;;;;;;;;;5065630;28;20797;-84
2022/12/10 12:08:47;;;;;;;34.15;23.10;;;;;;;;;;5069126;28;20442;-83
2022/12/10 12:11:21;;;;;;;35.63;22.33;;;;;;;;;;5068613;28;20431;-83
2022/12/10 12:13:52;;;;;;;36.30;22.83;;;;;;;;;;5072374;28;20416;-84
2022/12/10 12:16:20;;;;;;;37.08;22.83;;;;;;;;;;5068092;28;20421;-83
2022/12/10 12:18:51;;;;;;;32.55;21.63;;;;;;;;;;5064455;28;20453;-84
2022/12/10 12:21:18;;;;;;;34.53;21.73;;;;;;;;;;5085168;28;21040;-83
2022/12/10 12:23:50;;;;;;;34.50;20.90;;;;;;;;;;5069124;28;20445;-84
2022/12/10 12:26:20;;;;;;;32.25;20.08;;;;;;;;;;5069162;28;20433;-84
2022/12/10 12:28:50;;;;;;;30.48;20.55;;;;;;;;;;5069490;28;20425;-82
2022/12/10 12:31:18;;;;;;;29.85;19.45;;;;;;;;;;5066660;28;20429;-84
2022/12/10 12:33:48;;;;;;;32.97;22.35;;;;;;;;;;5064634;28;20787;-83
2022/12/10 12:36:17;;;;;;;29.67;19.63;;;;;;;;;;5061948;28;20938;-83
2022/12/10 12:38:47;;;;;;;32.40;20.95;;;;;;;;;;5068654;28;20423;-83
2022/12/10 12:41:16;;;;;;;31.92;21.50;;;;;;;;;;5067607;28;20936;-83
2022/12/10 12:43:47;;;;;;;28.20;20.30;;;;;;;;;;5069603;28;20431;-83
2022/12/10 12:46:17;;;;;;;30.80;21.13;;;;;;;;;;5064060;28;20521;-83
2022/12/10 12:48:49;;;;;;;31.75;21.52;;;;;;;;;;5065132;28;20427;-84
2022/12/10 12:51:18;;;;;;;31.15;21.58;;;;;;;;;;5068128;28;20431;-84
2022/12/10 12:53:48;;;;;;;28.30;19.40;;;;;;;;;;5068176;28;20421;-83
2022/12/10 12:56:21;;;;;;;34.20;21.33;;;;;;;;;;5067546;28;20431;-83
2022/12/10 12:58:49;;;;;;;31.30;21.88;;;;;;;;;;5069548;28;20429;-83
2022/12/10 13:01:21;;;;;;;28.70;19.30;;;;;;;;;;5072308;28;20435;-83
2022/12/10 13:03:49;;;;;;;35.40;23.77;;;;;;;;;;5066036;28;20431;-83
2022/12/10 13:06:18;;;;;;;34.63;22.48;;;;;;;;;;5066398;28;20429;-83
2022/12/10 13:08:45;;;;;;;35.38;23.40;;;;;;;;;;5066892;28;20418;-83
2022/12/10 13:11:20;;;;;;;32.45;22.38;;;;;;;;;;5069905;28;20425;-83
2022/12/10 13:14:05;;;;;;;33.72;22.70;;;;;;;;;;5059749;28;20421;-83
2022/12/10 13:16:35;;;;;;;32.70;20.90;;;;;;;;;;5071491;28;20447;-83
2022/12/10 13:19:20;;;;;;;35.13;23.35;;;;;;;;;;5062805;28;20429;-83
2022/12/10 13:21:57;;;;;;;33.50;21.85;;;;;;;;;;5066949;28;20416;-83
2022/12/10 13:24:44;;;;;;;33.00;21.20;;;;;;;;;;5065677;28;20415;-83
2022/12/10 13:27:17;;;;;;;30.60;21.13;;;;;;;;;;5068751;28;20943;-83
2022/12/10 13:29:45;;;;;;;32.65;22.42;;;;;;;;;;5069727;28;20433;-83
2022/12/10 13:32:15;;;;;;;32.28;20.50;;;;;;;;;;5065272;28;20425;-83
2022/12/10 13:34:41;;;;;;;30.60;19.10;;;;;;;;;;5063467;28;20426;-83
2022/12/10 13:37:18;;;;;;;28.85;19.60;;;;;;;;;;5063699;28;20423;-83
2022/12/10 13:39:52;;;;;;;32.50;20.60;;;;;;;;;;5066724;28;20928;-82
2022/12/10 13:45:24;;;;;;;35.33;23.13;;;;;;;;;;5069411;28;20433;-83
2022/12/10 13:47:52;;;;;;;36.53;22.35;;;;;;;;;;5073855;28;20413;-83
2022/12/10 13:50:19;;;;;;;35.58;23.08;;;;;;;;;;5072072;28;20416;-83
2022/12/10 13:52:51;;;;;;;36.43;24.43;;;;;;;;;;5072635;28;20444;-83
2022/12/10 13:55:23;;;;;;;39.28;24.58;;;;;;;;;;5072259;28;20424;-83
2022/12/10 13:57:57;;;;;;;42.08;27.10;;;;;;;;;;5073174;28;20468;-83
2022/12/10 14:00:26;;;;;;;33.40;22.83;;;;;;;;;;5073486;28;20419;-83
2022/12/10 14:03:08;;;;;;;39.20;24.65;;;;;;;;;;5073761;28;20789;-83
2022/12/10 14:05:41;;;;;;;32.40;22.07;;;;;;;;;;5070319;28;20853;-83
2022/12/10 14:08:10;;;;;;;33.47;21.20;;;;;;;;;;5073796;28;20420;-83
2022/12/10 14:10:37;;;;;;;35.72;22.27;;;;;;;;;;5075803;28;20427;-83
2022/12/10 14:13:06;;;;;;;33.13;20.43;;;;;;;;;;5076068;28;20913;-83
2022/12/10 14:15:34;;;;;;;30.23;20.60;;;;;;;;;;5067423;28;20425;-83
2022/12/10 14:18:02;;;;;;;31.40;21.50;;;;;;;;;;5069935;28;20410;-83
2022/12/10 14:20:30;;;;;;;33.50;21.98;;;;;;;;;;5073346;28;20444;-83
2022/12/10 14:23:32;;;;;;;36.90;22.33;;;;;;;;;;5078716;28;20420;-83
2022/12/10 14:25:44;;;;;;;32.75;22.33;;;;;;;;;;5070784;28;20436;-83
2022/12/10 14:28:13;;;;;;;32.90;22.38;;;;;;;;;;5072324;28;20418;-83
2022/12/10 14:30:43;;;;;;;30.17;20.15;;;;;;;;;;5068115;28;20433;-83
2022/12/10 14:33:11;;;;;;;34.60;21.73;;;;;;;;;;5072655;28;20413;-83